Boulevard, CA

11:01 AM PST on November 27, 2014 (GMT -0800)
RAWS BOULEVARD CA US | Change Station
CLOSE
Current Station
Personal Weather Station
Location: Boulevard, CA
Elevation: 3267 ft
Nearby Weather Stations

Elev 3267 ft 32.66 °N, 116.27 °W | Updated 470 days ago

Clear
Clear
73 °F
Feels Like 73 °F
N
18
Wind Variable Wind from ENE
Gusts 29 mph

Today
High -- | Low -- °F
--% Chance of Precip.
Yesterday
High -- | Low -- °F
Precip. -- in
6:25 AM 4:39 PM
Waxing Crescent, 32% visible
Pressure 30.08 in
Visibility -9999.0 miles
Clouds
Dew Point 15 °F
Humidity 10%
Rainfall 0.00 in
Snow Depth Not available.
UV Not available.
Pollen 2.60 out of 12
Air Quality Not available.
Flu Activity Not available.
METAR KCZZ 271752Z AUTO 07016KT 26/M09 A3016 RMK AO1 SLP185 T02561094 10256 20100 58006 $

More Conditions Fewer Conditions

Pressure 30.08 in
Visibility -9999.0 miles
Clouds
Dew Point 15 °F
Humidity 10%
Rainfall 0.00 in
Snow Depth Not available.
UV Not available.
Pollen 2.60 out of 12
Air Quality Not available.
Flu Activity Not available.
METAR KCZZ 271752Z AUTO 07016KT 26/M09 A3016 RMK AO1 SLP185 T02561094 10256 20100 58006 $

More Conditions Fewer Conditions

10-Day Weather Forecast

Almanac

Astronomy

Nov. 27, 2014 Rise Set
Actual Time
Civil Twilight
Nautical Twilight
Astronomical Twilight
Moon
Length of Visible Light
Length of Day
Tomorrow will be .
, % of the Moon is Illuminated

Today's Extremes

State Highs State Lows

Community

WunderPhotos

Upload Photos

1,774,088 photos uploaded!

WunderBlogs® & News

Nearby

Air Quality

  Air Quality AQ Index Pollutant
Not available.

Snow Depth

Station Depth Elevation

Earthquake Activity

City Distance Mag. Time & Date
Minimum magnitude displayed is 2.5.

Coastal Water Temperatures

Place Temperature

Nearby Weather Stations